Date,TemperatureHighF,TemperatureAvgF,TemperatureLowF,DewpointHighF,DewpointAvgF,DewpointLowF,HumidityHigh,HumidityAvg,HumidityLow,PressureMaxIn,PressureMinIn,WindSpeedMaxMPH,WindSpeedAvgMPH,GustSpeedMaxMPH,PrecipitationSumIn
2013-1-1,39.8,37.0,29.1,31.6,29.0,18.5,79,73,64,30.03,29.86,16,1,16,0.11
2013-1-2,32.9,27.9,24.5,20.1,17.6,15.4,74,65,55,30.21,29.99,17,1,17,0.00
2013-1-3,33.1,27.2,21.8,22.0,18.3,16.0,78,69,54,30.21,30.10,11,1,13,0.00
2013-1-4,37.6,33.4,28.0,25.4,23.5,20.2,78,67,60,30.12,30.00,20,1,20,0.00
2013-1-5,41.1,33.5,29.3,27.8,23.5,20.6,80,67,54,30.33,30.05,16,1,16,0.00
2013-1-6,46.7,38.2,31.7,34.6,30.4,25.9,91,74,52,30.22,29.99,11,0,12,0.03
2013-1-7,46.6,37.5,27.7,33.5,28.7,23.6,85,71,51,30.41,30.07,11,1,12,0.00
2013-1-8,48.2,34.5,24.9,35.4,28.4,21.6,95,79,59,30.42,30.34,13,1,13,0.00
2013-1-9,50.2,39.5,28.2,40.8,34.1,25.4,91,81,68,30.39,30.15,14,1,14,0.00
2013-1-10,49.2,41.6,35.0,34.1,29.8,27.4,76,63,49,30.53,30.28,13,1,14,0.00
2013-1-11,45.5,40.4,33.0,43.1,35.3,26.9,93,82,72,30.51,30.07,6,0,6,0.54
2013-1-12,50.4,45.1,42.5,47.6,43.0,40.6,94,92,88,30.16,30.07,7,0,7,0.00
2013-1-13,49.2,46.3,43.0,47.8,44.7,41.1,95,94,93,30.14,29.98,9,0,9,0.02
2013-1-14,53.8,50.0,40.2,52.4,46.1,34.3,95,87,59,30.28,29.92,12,1,17,0.10
2013-1-15,40.1,37.4,34.8,37.1,32.2,29.9,91,81,72,30.34,30.19,10,1,10,0.21
2013-1-16,37.0,34.9,33.0,35.2,32.9,30.9,93,92,88,30.19,29.80,10,0,11,0.83
2013-1-17,43.2,38.9,36.7,36.1,32.1,29.3,93,77,63,30.09,29.93,15,1,15,0.00
2013-1-18,36.6,30.1,25.1,30.7,18.8,11.9,85,63,45,30.49,29.99,21,2,23,0.00
2013-1-19,49.9,39.1,27.2,32.6,27.7,16.3,81,64,49,30.41,29.92,19,3,19,0.00
2013-1-20,54.9,42.1,29.6,34.7,26.5,13.2,76,56,32,30.05,29.73,23,4,23,0.00
2013-1-21,32.7,28.2,22.0,24.1,16.1,12.9,84,61,49,30.10,29.86,14,1,20,0.00
2013-1-22,25.0,18.5,13.2,14.2,3.7,-1.2,65,52,41,30.26,29.87,24,4,24,0.00
2013-1-23,21.0,14.4,10.3,6.9,2.9,-0.6,78,60,47,30.29,30.18,17,1,17,0.00
2013-1-24,25.4,18.5,12.5,8.9,5.5,1.5,80,58,37,30.45,30.12,22,2,22,0.00
2013-1-25,23.6,17.0,10.4,15.4,6.9,1.1,86,65,47,30.46,30.08,13,1,13,0.00
2013-1-26,27.0,18.9,9.8,16.7,11.2,6.3,89,73,55,30.41,30.06,16,1,16,0.00
2013-1-27,33.8,22.7,12.8,19.9,14.0,7.7,81,70,51,30.56,30.41,9,1,11,0.00
2013-1-28,35.8,31.1,21.9,33.7,27.5,16.1,94,86,78,30.50,30.01,13,1,13,0.07
2013-1-29,49.5,43.0,33.2,46.0,40.3,31.1,95,90,84,30.14,30.01,6,0,6,0.02
2013-1-30,66.2,53.9,42.2,60.1,51.1,40.3,95,90,79,30.02,29.32,26,2,26,0.30
2013-1-31,60.6,43.5,28.0,58.7,32.9,14.1,94,67,46,29.84,29.06,33,5,33,0.58
2013-2-1,30.7,27.0,21.3,20.7,13.1,8.5,81,56,42,30.28,29.82,23,3,23,0.00
2013-2-2,29.9,23.7,16.4,22.5,12.3,6.8,88,62,44,30.32,30.03,14,2,14,0.00
2013-2-3,30.3,26.0,22.0,24.7,21.7,18.4,90,84,71,30.03,29.81,20,0,20,0.03
2013-2-4,30.5,25.4,18.6,23.5,14.9,11.1,81,64,52,30.03,29.85,19,2,20,0.00
2013-2-5,33.2,30.6,28.3,30.7,26.7,23.4,95,85,81,29.95,29.88,6,0,6,0.01
2013-2-6,39.7,31.5,25.1,29.5,24.8,18.2,91,77,56,30.35,29.92,17,1,17,0.02
2013-2-7,34.4,28.6,21.7,23.7,18.8,15.4,87,67,52,30.48,30.27,10,1,10,0.01
2013-2-8,36.4,34.0,31.9,33.4,30.9,23.8,95,88,71,30.27,29.68,18,2,18,0.23
2013-2-9,32.8,27.8,21.6,30.6,19.4,11.3,92,72,51,30.38,29.78,26,4,26,0.01
2013-2-10,38.7,27.4,14.5,23.4,15.5,8.9,80,62,38,30.49,30.30,9,1,9,0.13
2013-2-11,48.0,39.3,32.0,46.4,36.3,23.5,94,89,69,30.30,29.65,16,0,16,0.20
2013-2-12,46.2,39.9,29.7,38.2,28.7,23.9,93,65,51,29.98,29.76,22,3,22,0.00
2013-2-13,43.8,34.1,24.3,31.2,27.2,20.8,91,77,57,29.96,29.67,7,0,9,0.01
2013-2-14,46.1,36.0,29.1,35.0,30.4,26.3,92,81,60,30.00,29.71,12,1,12,0.19
2013-2-15,57.8,42.3,29.7,38.7,32.9,26.1,90,71,45,30.01,29.90,14,1,14,0.03
2013-2-16,37.5,34.5,30.1,32.7,27.2,16.3,91,75,56,29.98,29.77,16,2,16,0.04
2013-2-17,32.2,27.1,20.5,16.4,10.4,4.1,58,49,42,30.07,29.73,28,5,28,0.00
2013-2-18,35.7,26.4,19.0,16.9,11.1,4.7,64,52,40,30.31,30.07,18,3,21,0.00
2013-2-19,45.1,35.9,24.3,41.4,29.9,16.8,92,79,57,30.19,29.68,20,2,20,0.13
2013-2-20,35.5,29.5,24.5,28.4,16.8,12.4,75,59,48,30.04,29.77,24,4,24,0.00
2013-2-21,35.2,29.0,23.8,19.2,16.2,12.3,68,59,50,30.30,30.03,23,4,23,0.00
2013-2-22,37.6,30.9,22.7,30.5,22.7,15.2,84,71,62,30.40,30.23,12,1,12,0.00
2013-2-23,45.6,39.7,34.1,43.9,37.5,30.4,94,92,84,30.25,29.79,11,1,11,0.14
2013-2-24,47.2,38.1,30.6,41.7,31.4,21.7,94,78,58,30.02,29.76,20,2,20,0.01
2013-2-25,45.0,35.6,25.8,30.9,26.0,20.8,83,68,51,30.22,30.02,14,1,15,0.00
2013-2-26,45.0,35.7,26.0,35.4,30.0,22.4,92,80,63,30.24,29.78,20,2,24,0.39
2013-2-27,50.9,44.0,37.6,47.3,40.3,35.5,94,87,72,29.78,29.50,19,2,19,0.19
2013-2-28,47.2,41.8,34.7,37.8,33.6,27.5,87,73,51,29.65,29.56,13,1,13,0.00
2013-3-1,44.5,38.2,30.8,33.6,29.6,26.3,89,72,55,29.80,29.63,16,2,16,0.00
2013-3-2,41.1,35.4,31.4,27.1,24.5,21.5,71,64,54,29.80,29.72,18,3,19,0.00
2013-3-3,38.7,32.2,26.3,23.5,20.5,17.9,72,62,51,29.80,29.71,19,3,19,0.00
2013-3-4,41.2,34.1,29.4,23.8,21.1,17.6,71,59,48,29.95,29.80,22,4,22,0.00
2013-3-5,47.2,38.0,31.2,31.1,26.6,22.9,79,64,49,30.02,29.92,13,2,13,0.00
2013-3-6,41.5,37.8,34.4,36.0,33.1,28.3,89,83,73,29.93,29.75,28,4,28,0.10
2013-3-7,46.9,39.7,34.8,33.5,29.6,26.8,86,67,52,30.09,29.92,19,4,22,0.01
2013-3-8,43.0,35.4,30.4,34.1,29.7,26.0,90,80,64,30.22,30.03,15,3,15,0.16
2013-3-9,60.6,43.3,28.8,30.7,24.9,18.6,78,51,25,30.30,30.20,12,2,12,0.00
2013-3-10,56.4,42.4,29.2,38.2,30.8,19.6,86,65,45,30.36,30.24,11,1,11,0.00
2013-3-11,59.9,47.1,37.1,48.1,41.4,33.3,93,82,48,30.29,30.04,15,1,15,0.00
2013-3-12,58.0,51.5,40.3,56.3,48.5,34.8,94,89,80,30.04,29.66,27,3,27,1.00
2013-3-13,50.4,40.7,31.9,35.1,30.5,23.9,86,68,45,29.93,29.82,20,2,20,0.00
2013-3-14,42.5,35.3,29.0,24.2,19.1,14.4,79,53,37,30.00,29.90,25,4,28,0.00
2013-3-15,51.2,39.6,25.6,33.7,23.9,14.2,67,53,44,30.01,29.72,19,2,19,0.00
2013-3-16,45.3,36.8,32.7,33.2,29.9,24.8,91,77,58,29.92,29.75,9,1,10,0.04
2013-3-17,39.5,33.5,28.1,31.2,25.0,20.7,91,72,53,30.29,29.91,10,1,13,0.09
2013-3-18,39.7,32.7,27.8,33.5,24.5,14.8,93,73,54,30.36,29.91,12,2,16,0.39
2013-3-19,51.0,40.6,35.4,42.1,33.0,21.4,94,77,42,29.91,29.68,19,2,19,0.39
2013-3-20,49.2,39.1,30.7,25.9,22.3,19.5,66,52,34,29.91,29.77,18,2,21,0.00
2013-3-21,39.6,33.6,28.2,28.5,21.3,14.2,88,62,40,29.81,29.66,18,2,18,0.00
2013-3-22,41.3,33.6,26.7,24.4,20.8,14.5,73,60,47,29.92,29.77,17,2,21,0.00
2013-3-23,49.7,38.5,29.8,26.5,22.5,20.1,68,53,38,29.95,29.85,18,3,19,0.00
2013-3-24,46.8,38.3,28.3,28.1,23.4,19.5,73,56,40,29.97,29.67,13,1,14,0.00
2013-3-25,37.8,35.8,33.7,33.9,31.3,27.2,92,84,66,29.68,29.46,16,1,16,0.37
2013-3-26,52.0,41.9,34.4,37.9,33.1,28.6,92,73,43,29.90,29.62,17,2,17,0.02
2013-3-27,51.9,41.8,31.2,34.2,30.9,27.6,89,67,41,30.01,29.90,16,2,17,0.00
2013-3-28,48.4,41.6,31.6,33.3,30.0,26.1,82,64,48,30.13,29.99,16,2,17,0.00
2013-3-29,53.9,44.7,31.1,34.3,30.5,25.9,82,58,42,30.17,30.08,13,2,14,0.00
2013-3-30,59.1,46.0,31.1,35.1,29.5,25.9,84,56,29,30.18,30.08,9,1,12,0.00
2013-3-31,56.7,45.2,33.8,46.2,37.2,28.3,93,75,43,30.12,29.69,17,2,17,0.11
2013-4-1,64.7,48.7,36.7,48.1,37.2,18.6,93,67,40,29.93,29.65,26,2,26,0.00
2013-4-2,46.0,37.8,28.1,22.7,18.0,15.6,63,45,32,30.11,29.93,21,3,21,0.00
2013-4-3,48.1,37.9,27.6,25.3,17.9,13.8,62,45,30,30.30,30.10,18,2,23,0.00
2013-4-4,54.1,40.3,26.2,29.6,22.6,14.4,67,50,35,30.40,30.07,16,1,16,0.00
2013-4-5,64.8,50.1,39.2,36.1,29.5,21.4,82,49,25,30.08,29.73,18,2,18,0.00
2013-4-6,54.2,43.2,33.7,30.6,23.0,17.5,67,46,29,30.30,30.01,17,2,18,0.00
2013-4-7,64.1,51.1,38.8,45.3,37.9,29.7,75,62,47,30.29,29.97,17,3,21,0.00
2013-4-8,77.8,63.1,47.3,53.3,48.1,41.7,83,60,39,30.06,29.94,15,1,15,0.00
2013-4-9,83.6,71.1,55.8,57.6,52.7,48.0,84,55,30,29.99,29.87,20,2,20,0.00
2013-4-10,88.4,71.8,60.9,62.5,57.6,53.0,93,63,40,29.92,29.76,24,2,24,0.58
2013-4-11,63.6,58.6,48.7,60.6,54.6,43.7,94,87,73,29.95,29.76,16,2,16,0.01
2013-4-12,48.6,44.6,42.7,44.6,42.3,40.9,94,92,83,29.94,29.68,20,3,20,0.63
2013-4-13,59.7,50.2,38.9,46.3,40.1,36.2,94,71,46,29.97,29.74,14,1,16,0.00
2013-4-14,62.2,52.1,39.7,41.1,37.1,31.6,86,59,37,30.16,29.96,11,1,15,0.00
2013-4-15,59.0,50.8,45.5,46.4,38.2,33.1,75,62,53,30.33,30.16,10,2,11,0.00
2013-4-16,71.5,59.6,45.9,59.4,51.1,42.0,88,74,60,30.33,30.10,22,2,22,0.00
2013-4-17,73.3,61.9,53.8,57.0,49.2,40.7,93,66,34,30.26,30.08,12,1,12,0.00
2013-4-18,61.4,55.9,50.2,55.9,50.1,41.8,91,81,70,30.28,30.05,12,1,13,0.01
2013-4-19,77.3,66.1,54.5,68.0,61.3,51.7,93,85,67,30.05,29.60,22,3,22,0.36
2013-4-20,59.0,51.2,44.2,51.9,37.3,27.7,91,62,38,30.32,29.70,23,2,23,0.17
2013-4-21,55.2,44.9,33.4,32.8,28.0,22.7,68,52,38,30.60,30.31,16,1,18,0.00
2013-4-22,53.2,44.1,33.0,39.2,34.2,28.7,86,69,51,30.61,30.44,17,2,17,0.00
2013-4-23,50.1,45.6,41.5,43.5,38.9,34.2,87,78,69,30.44,30.13,14,1,15,0.00
2013-4-24,72.0,56.9,38.3,58.1,48.8,35.1,91,75,59,30.13,29.79,18,2,18,0.00
2013-4-25,64.1,53.8,43.5,57.0,36.1,29.3,84,52,30,30.26,29.86,21,2,21,0.00
2013-4-26,65.3,53.2,41.6,41.7,35.4,31.2,73,53,31,30.41,30.26,14,1,15,0.00
2013-4-27,69.8,55.2,39.2,42.4,36.8,32.1,80,52,31,30.43,30.26,9,0,9,0.00
2013-4-28,71.3,57.8,41.5,48.9,40.6,32.2,86,55,34,30.30,30.17,15,1,15,0.00
2013-4-29,56.3,53.9,51.2,54.6,50.9,43.3,94,90,68,30.20,30.11,11,1,11,0.54
2013-4-30,67.8,57.4,46.8,53.2,46.0,34.5,94,69,38,30.31,30.16,13,1,14,0.03
2013-5-1,67.8,54.8,39.6,46.3,38.7,32.8,85,58,31,30.42,30.31,14,1,14,0.00
2013-5-2,71.5,56.8,40.1,51.5,43.8,37.1,91,65,37,30.44,30.31,9,0,10,0.00
2013-5-3,63.9,55.0,45.1,46.6,42.1,36.8,85,64,40,30.41,30.32,16,1,16,0.00
2013-5-4,68.6,54.8,40.3,50.4,43.2,37.4,95,68,42,30.36,30.19,13,1,13,0.00
2013-5-5,64.0,52.1,39.9,48.6,42.2,36.3,89,70,48,30.27,30.17,12,1,12,0.00
2013-5-6,68.6,55.5,44.4,56.1,49.2,39.9,91,80,61,30.23,30.11,11,1,11,0.00
2013-5-7,71.0,60.1,52.4,62.8,56.0,50.4,94,87,70,30.13,30.03,14,1,14,0.14
2013-5-8,69.2,61.9,58.3,64.5,59.1,55.3,95,91,77,30.04,29.90,12,1,12,0.54
2013-5-9,70.8,61.3,55.6,60.0,56.3,53.6,94,84,64,29.96,29.89,10,0,10,0.40
2013-5-10,82.1,68.7,53.5,64.2,57.8,50.9,94,71,43,29.99,29.88,12,1,12,0.36
2013-5-11,73.4,65.6,61.8,66.9,62.4,58.8,94,90,76,29.91,29.70,15,1,15,0.46
2013-5-12,66.7,59.1,46.4,59.2,44.9,30.1,91,62,36,29.97,29.69,21,2,21,0.02
2013-5-13,56.2,48.5,38.5,37.8,33.7,28.2,82,58,37,30.12,29.97,15,1,15,0.00
2013-5-14,61.6,49.6,35.2,39.4,34.2,31.1,86,58,34,30.16,30.02,16,1,18,0.00
2013-5-15,72.3,61.3,47.6,60.3,51.4,36.4,87,70,58,30.06,29.69,19,1,19,0.00
2013-5-16,80.5,67.8,56.3,67.9,60.4,53.6,93,78,56,29.84,29.70,10,0,10,0.04
2013-5-17,74.0,63.8,54.9,54.8,47.5,43.6,79,57,36,30.17,29.84,13,1,13,0.00
2013-5-18,68.0,59.5,54.2,56.6,53.0,47.3,92,79,61,30.27,30.17,13,0,13,0.04
2013-5-19,61.4,58.9,56.4,59.8,57.2,54.5,95,94,92,30.26,30.14,4,0,7,0.15
2013-5-20,78.6,63.2,58.0,69.8,60.1,56.6,95,90,72,30.15,29.97,7,0,7,0.01
2013-5-21,83.8,73.6,61.8,74.2,67.6,59.8,94,82,66,29.97,29.84,15,1,15,0.00
2013-5-22,86.4,75.4,67.0,74.9,69.5,64.6,95,83,61,29.90,29.80,15,1,15,0.00
2013-5-23,81.9,72.9,66.3,71.2,68.2,62.9,92,86,65,29.87,29.73,15,2,15,0.36
2013-5-24,65.9,55.3,46.2,63.3,51.4,39.5,94,87,72,30.01,29.70,20,2,23,0.22
2013-5-25,61.6,53.4,46.3,44.7,40.0,34.8,85,62,43,30.05,29.97,26,3,26,0.01
2013-5-26,69.6,58.0,46.3,48.6,40.6,36.1,72,54,33,30.20,30.02,20,2,20,0.00
2013-5-27,72.8,59.6,41.1,51.0,43.7,36.9,89,59,37,30.25,30.14,9,0,9,0.00
2013-5-28,64.3,59.2,51.4,62.2,55.4,46.3,94,87,73,30.20,30.09,7,0,7,0.24
2013-5-29,88.3,73.4,59.3,73.5,65.0,57.5,95,77,51,30.10,30.00,15,0,15,0.01
2013-5-30,91.2,79.9,66.1,73.0,67.3,63.2,92,68,44,30.13,30.06,10,0,10,0.00
2013-5-31,91.9,79.8,66.5,73.3,66.7,60.3,92,67,37,30.12,29.99,15,1,15,0.00
2013-6-1,90.4,80.0,68.0,74.6,68.9,64.6,91,70,46,30.01,29.88,14,1,17,0.00
2013-6-2,87.3,79.3,72.2,73.6,69.7,65.4,84,73,59,29.89,29.77,15,1,15,0.00
2013-6-3,79.6,71.9,64.4,71.2,68.0,60.6,94,88,66,29.87,29.79,9,0,9,0.65
2013-6-4,75.7,65.6,55.3,60.6,50.6,46.3,88,60,39,30.10,29.87,12,1,16,0.00
2013-6-5,77.8,65.1,49.6,54.8,49.9,43.5,83,60,40,30.19,30.07,6,0,6,0.00
2013-6-6,73.0,63.7,53.7,62.7,56.8,50.2,93,79,53,30.11,29.95,11,1,12,0.18
2013-6-7,65.7,62.8,60.4,64.2,61.2,58.5,95,94,93,29.95,29.59,12,1,16,2.67
2013-6-8,76.7,68.2,58.7,67.7,62.7,57.3,95,83,67,30.06,29.59,16,1,16,0.01
2013-6-9,81.6,70.9,58.1,65.3,61.1,55.5,93,73,49,30.17,30.06,8,0,10,0.00
2013-6-10,71.7,69.1,65.9,70.1,66.4,62.4,95,91,83,30.13,29.76,16,0,17,1.39
2013-6-11,80.7,73.5,64.6,70.7,66.5,61.3,95,80,64,29.76,29.66,11,1,14,0.04
2013-6-12,82.0,72.9,63.2,65.2,61.3,58.7,88,68,49,29.82,29.75,16,1,16,0.00
2013-6-13,77.1,68.1,59.5,71.9,62.8,57.0,93,83,73,29.82,29.38,14,1,14,0.50
2013-6-14,75.1,62.5,54.1,64.0,55.8,51.8,92,80,57,29.91,29.50,9,2,15,0.08
2013-6-15,80.3,69.1,56.1,65.3,58.1,53.0,91,70,44,30.02,29.91,11,0,11,0.00
2013-6-16,82.3,70.2,58.5,68.3,61.5,53.8,89,75,52,29.99,29.80,14,1,19,0.00
2013-6-17,86.4,75.3,64.5,72.0,66.8,61.9,93,76,54,29.91,29.83,12,0,12,0.00
2013-6-18,76.9,68.9,64.3,72.0,65.8,61.6,94,90,79,29.89,29.79,12,0,12,0.36
2013-6-19,77.0,67.5,58.4,62.5,57.0,50.0,94,72,43,30.15,29.86,13,1,13,0.00
2013-6-20,80.3,68.6,54.5,65.6,57.2,51.1,91,68,50,30.26,30.15,11,1,12,0.00
2013-6-21,82.4,70.8,56.0,63.4,56.8,51.3,87,63,45,30.30,30.22,10,0,11,0.00
2013-6-22,84.7,72.5,57.0,69.5,62.5,53.5,91,72,55,30.25,30.10,10,0,11,0.00
2013-6-23,86.8,75.3,62.6,74.5,68.2,59.4,92,79,61,30.18,30.03,16,1,16,0.00
2013-6-24,92.0,79.2,70.9,76.9,70.5,65.1,93,76,55,30.07,29.97,15,0,18,0.00
2013-6-25,91.3,77.1,66.0,77.3,69.5,62.7,91,79,54,29.99,29.83,13,0,13,0.04
2013-6-26,87.8,76.6,68.4,75.1,69.2,64.1,93,79,59,29.86,29.76,9,0,11,0.33
2013-6-27,87.3,76.7,70.0,75.7,71.4,67.9,94,85,61,29.81,29.54,17,1,19,0.60
2013-6-28,85.0,75.1,68.6,74.1,69.9,65.8,94,85,64,29.56,29.46,12,0,12,0.02
2013-6-29,86.3,76.2,66.3,71.3,67.0,64.2,94,75,51,29.68,29.47,13,0,13,0.01
2013-6-30,82.9,74.1,68.5,75.9,70.7,64.7,93,89,76,29.87,29.68,7,0,7,0.74
2013-7-1,77.7,74.6,70.2,74.4,72.1,68.1,94,92,86,30.00,29.85,13,1,13,0.32
2013-7-2,84.5,77.3,73.3,76.1,72.6,69.8,92,86,71,30.16,30.00,14,1,14,0.00
2013-7-3,85.8,77.1,71.3,77.4,72.6,68.2,93,86,74,30.23,30.15,8,0,8,0.02
2013-7-4,88.8,80.4,73.6,77.0,73.6,70.3,94,81,64,30.23,30.15,9,0,9,0.00
2013-7-5,90.2,81.9,73.6,78.3,73.7,70.9,92,77,57,30.20,30.09,9,0,9,0.00
2013-7-6,92.9,83.6,74.3,78.9,74.2,71.3,93,75,54,30.14,30.02,3,0,5,0.00
2013-7-7,92.6,81.4,71.3,78.8,73.4,68.5,92,78,57,30.06,29.94,7,0,10,0.02
2013-7-8,86.2,76.0,69.1,74.9,69.6,66.7,93,81,63,30.05,29.98,1,0,1,0.00
2013-7-9,87.0,77.5,68.5,75.3,71.1,65.8,92,81,65,30.06,29.98,4,0,4,0.01
2013-7-10,87.3,80.0,73.5,77.4,73.8,70.7,93,82,65,30.00,29.80,12,0,12,0.00
2013-7-11,84.5,77.9,75.1,74.2,71.1,65.1,90,80,64,29.90,29.79,11,0,11,0.01
2013-7-12,75.3,71.9,68.8,69.9,66.3,62.8,94,83,71,30.03,29.90,18,1,19,0.80
2013-7-13,86.1,75.4,68.8,76.9,72.1,67.0,95,90,71,30.27,30.03,10,0,10,0.62
2013-7-14,89.6,79.8,71.9,78.9,73.5,70.1,95,82,61,30.33,30.23,7,0,7,0.00
2013-7-15,93.8,83.1,71.3,79.1,74.2,68.2,92,76,58,30.26,30.12,9,0,9,0.00
2013-7-16,92.3,83.4,73.7,74.5,72.0,69.1,88,70,51,30.19,30.12,13,1,13,0.00
2013-7-17,93.9,83.8,72.8,75.8,71.6,67.7,88,69,44,30.18,30.06,9,0,9,0.00
2013-7-18,95.5,86.3,75.9,81.3,75.8,70.9,86,72,56,30.07,29.95,7,0,10,0.00
2013-7-19,95.3,86.5,78.8,82.3,78.4,75.3,92,77,58,29.98,29.80,13,0,13,0.00
2013-7-20,91.7,83.0,75.3,78.6,73.3,69.0,83,73,61,29.83,29.73,12,0,12,0.00
2013-7-21,88.5,79.0,73.2,76.4,71.8,68.9,88,79,61,29.92,29.82,12,0,12,0.00
2013-7-22,85.6,76.0,72.1,77.4,72.3,68.8,94,88,72,29.92,29.75,9,0,9,1.25
2013-7-23,85.5,75.5,70.0,77.0,72.2,68.4,95,90,71,29.75,29.57,16,0,16,0.84
2013-7-24,79.8,73.3,65.5,70.0,65.7,55.0,93,78,60,29.92,29.62,13,1,13,0.00
2013-7-25,70.5,65.2,60.0,61.0,57.1,53.0,81,75,68,30.03,29.91,11,1,13,0.00
2013-7-26,81.5,71.1,61.5,66.2,60.9,58.2,89,72,50,30.04,29.99,10,0,12,0.00
2013-7-27,84.2,73.4,61.9,70.5,64.1,58.1,93,74,55,30.04,29.91,9,1,14,0.00
2013-7-28,81.5,72.3,66.6,74.2,67.9,63.0,93,86,76,29.96,29.86,11,0,11,0.28
2013-7-29,82.2,73.1,64.2,69.2,62.7,56.4,94,72,43,30.11,29.94,11,0,13,0.02
2013-7-30,81.4,70.1,59.0,64.8,59.6,55.1,89,71,50,30.18,30.10,11,0,11,0.00
2013-7-31,81.5,71.7,59.0,66.9,62.0,56.4,93,73,50,30.15,30.01,8,0,8,0.00
2013-8-1,72.0,69.2,66.1,70.4,66.1,62.0,95,90,78,30.01,29.81,14,0,15,1.10
2013-8-2,83.7,74.5,66.0,69.8,66.4,62.5,95,78,53,29.92,29.80,13,0,13,0.00
2013-8-3,74.9,69.9,65.4,69.0,65.2,61.5,91,85,77,29.92,29.86,9,0,9,0.05
2013-8-4,78.5,70.0,61.1,65.7,60.3,55.6,93,73,47,29.98,29.85,13,1,14,0.00
2013-8-5,77.5,67.4,56.2,59.4,55.5,50.9,88,67,45,30.07,29.98,10,0,11,0.00
2013-8-6,80.0,67.3,55.8,66.2,59.5,53.0,92,77,54,30.10,30.02,9,0,10,0.00
2013-8-7,75.2,70.4,66.2,69.6,66.8,62.6,94,89,79,30.11,30.03,12,1,12,0.09
2013-8-8,85.5,76.4,69.5,78.1,71.9,67.3,95,86,71,30.04,29.96,15,1,15,0.18
2013-8-9,84.3,78.4,75.3,78.2,74.3,71.6,92,87,76,29.98,29.80,14,1,14,0.11
2013-8-10,82.4,75.3,68.2,72.8,67.7,64.4,93,78,60,30.03,29.86,5,0,10,0.00
2013-8-11,83.6,72.9,60.3,68.3,63.3,57.3,91,73,53,30.11,30.00,7,0,10,0.00
2013-8-12,83.0,73.8,69.3,72.0,67.8,65.7,93,82,59,30.01,29.91,7,0,7,0.00
2013-8-13,80.5,72.5,65.2,71.9,68.5,63.1,95,88,70,29.91,29.69,12,0,12,2.21
2013-8-14,74.0,66.6,57.7,68.2,55.8,49.8,89,69,54,30.05,29.76,21,1,21,0.00
2013-8-15,71.5,57.2,52.5,59.6,52.3,49.5,91,84,61,30.15,30.05,6,0,6,0.00
2013-8-16,78.8,66.9,52.9,61.3,55.6,50.3,93,69,45,30.19,30.12,6,0,6,0.00
2013-8-17,81.2,68.7,55.2,64.2,58.1,52.6,93,71,46,30.25,30.19,6,0,7,0.00
2013-8-18,74.9,67.5,62.9,64.6,61.3,57.8,92,81,57,30.24,30.13,10,0,10,0.04
2013-8-19,77.2,68.7,61.2,68.1,63.2,58.8,95,83,68,30.14,30.04,6,0,7,0.00
2013-8-20,86.9,74.3,63.0,72.3,66.2,61.0,94,77,52,30.13,30.05,6,0,6,0.00
2013-8-21,87.3,76.1,63.5,71.9,66.7,61.1,93,75,46,30.17,30.05,8,0,8,0.00
2013-8-22,83.5,75.5,71.2,76.0,71.4,68.3,94,87,72,30.05,29.88,11,0,11,0.39
2013-8-23,76.2,70.7,64.0,68.3,64.3,59.0,92,81,61,30.09,29.89,12,0,12,0.00
2013-8-24,65.2,63.6,62.2,59.7,57.6,54.5,85,81,76,30.16,30.09,6,0,7,0.00
2013-8-25,80.0,67.1,53.1,62.6,56.6,50.8,93,71,45,30.40,30.24,3,0,9,0.00
2013-8-26,84.5,73.1,62.1,70.7,63.7,56.4,84,73,58,30.24,29.92,2,0,14,0.01
2013-8-27,87.2,77.5,69.9,72.1,68.5,65.5,88,75,55,29.92,29.84,4,0,13,0.00
2013-8-28,74.0,71.6,68.4,72.1,69.4,65.7,95,93,86,29.88,29.81,5,0,5,0.94
2013-8-29,79.2,72.9,69.2,71.9,69.3,65.1,95,89,74,30.01,29.85,9,0,9,0.00
2013-8-30,81.3,73.8,67.1,73.5,69.0,64.2,93,85,75,30.01,29.85,10,0,10,0.01
2013-8-31,86.0,77.2,70.0,76.7,72.0,67.7,94,84,71,29.87,29.77,12,0,12,0.01
2013-9-1,88.8,78.3,72.1,76.3,72.3,69.2,93,82,60,29.83,29.75,9,0,9,0.00
2013-9-2,79.5,74.1,70.8,74.4,71.4,68.7,95,91,78,29.77,29.69,7,0,7,0.61
2013-9-3,81.2,73.0,65.0,71.4,65.3,57.6,95,78,52,29.89,29.69,12,1,12,0.00
2013-9-4,79.1,68.5,58.6,64.3,59.1,55.5,91,73,52,30.02,29.89,11,0,11,0.00
2013-9-5,77.3,67.0,57.7,65.3,56.8,48.0,90,71,42,30.13,29.95,13,1,13,0.00
2013-9-6,70.8,60.2,49.8,51.3,47.3,44.2,85,64,41,30.25,30.13,10,0,10,0.00
2013-9-7,77.1,62.7,47.1,59.2,52.2,44.6,92,71,43,30.13,29.90,7,0,7,0.00
2013-9-8,81.2,70.4,59.8,68.7,60.3,48.0,90,71,55,30.07,29.84,16,1,16,0.00
2013-9-9,74.9,64.1,50.1,62.7,55.1,45.2,85,73,61,30.21,30.07,10,0,10,0.00
2013-9-10,86.0,75.9,67.5,75.5,70.3,62.8,92,83,69,30.16,30.05,12,1,12,0.00
2013-9-11,92.3,80.9,72.2,79.6,73.8,69.6,94,80,62,30.11,29.97,13,0,13,0.00
2013-9-12,86.7,76.5,69.3,76.2,71.4,67.1,93,85,68,29.98,29.69,11,0,11,0.16
2013-9-13,75.8,67.3,57.6,67.6,60.8,50.7,94,81,58,29.87,29.64,16,1,16,0.07
2013-9-14,65.0,56.7,47.7,53.4,48.5,44.0,88,75,60,30.15,29.88,12,1,16,0.00
2013-9-15,71.8,57.8,43.7,56.0,49.7,41.2,92,76,53,30.22,30.08,9,0,9,0.00
2013-9-16,69.8,61.2,56.2,60.7,55.7,48.9,93,83,62,30.23,30.03,12,0,12,0.12
2013-9-17,64.3,54.1,45.5,48.9,44.1,40.8,88,70,49,30.42,30.23,14,1,15,0.00
2013-9-18,69.5,54.7,40.7,51.3,45.2,38.0,95,73,45,30.34,30.19,9,0,9,0.00
2013-9-19,74.0,59.3,45.5,58.4,51.2,43.0,93,76,50,30.19,30.07,7,0,7,0.00
2013-9-20,77.8,63.8,50.6,63.4,56.3,48.4,93,78,53,30.08,29.96,7,0,8,0.00
2013-9-21,78.7,65.9,51.4,66.4,58.6,49.2,94,79,50,29.99,29.66,17,1,17,0.81
2013-9-22,68.0,61.1,52.5,61.7,53.0,45.5,94,76,52,29.92,29.66,13,1,15,0.33
2013-9-23,65.9,55.4,46.0,49.8,45.0,40.9,84,69,53,30.05,29.92,14,1,14,0.00
2013-9-24,70.2,55.7,42.4,53.4,46.7,38.8,90,73,51,30.07,29.89,10,0,10,0.00
2013-9-25,70.9,57.5,45.4,53.3,48.1,42.0,90,72,47,29.96,29.87,7,0,7,0.00
2013-9-26,72.0,59.1,48.3,59.0,53.0,46.0,93,81,59,30.08,29.92,10,0,10,0.00
2013-9-27,68.5,60.7,54.8,57.5,53.9,51.2,93,79,58,30.25,30.08,7,0,7,0.00
2013-9-28,71.7,61.3,53.0,56.1,52.9,48.0,91,76,50,30.31,30.22,8,0,10,0.00
2013-9-29,70.6,58.3,48.8,58.9,52.0,46.6,93,81,59,30.22,30.06,6,0,6,0.00
2013-9-30,73.0,58.5,47.4,57.0,51.2,45.0,93,78,52,30.08,29.97,7,0,7,0.00
2013-10-1,78.7,63.6,51.4,65.0,56.6,48.6,93,79,55,30.02,29.92,8,0,9,0.00
2013-10-2,81.8,68.4,57.1,65.7,60.6,54.8,93,78,55,30.01,29.93,13,0,13,0.00
2013-10-3,80.2,68.5,57.2,65.1,60.9,54.9,93,78,56,30.12,30.01,3,0,6,0.00
2013-10-4,83.9,70.9,60.1,69.2,64.1,57.8,94,81,59,30.05,29.96,8,0,8,0.00
2013-10-5,82.9,72.3,64.0,70.1,66.4,61.6,93,82,62,30.07,29.98,7,0,8,0.00
2013-10-6,77.9,68.7,65.0,70.9,65.9,63.0,95,91,78,30.05,29.96,9,0,9,0.11
2013-10-7,76.0,64.9,53.4,73.1,62.9,50.0,95,93,83,30.00,29.74,23,1,23,0.41
2013-10-8,65.6,55.2,47.1,51.8,48.6,44.8,93,80,58,30.30,30.00,12,0,12,0.00
2013-10-9,60.4,54.7,49.3,51.4,48.2,43.5,88,79,69,30.35,30.24,14,1,14,0.00
2013-10-10,59.0,55.3,51.3,56.1,52.4,48.5,95,90,79,30.23,30.00,12,1,14,0.24
2013-10-11,62.2,60.0,57.1,60.8,57.9,55.1,95,93,88,30.04,29.95,13,1,13,1.07
2013-10-12,70.1,63.4,57.8,59.8,54.8,46.2,92,74,55,30.21,30.02,16,1,17,0.00
2013-10-13,66.2,59.6,50.3,55.9,51.9,47.2,89,76,57,30.35,30.21,16,1,16,0.00
2013-10-14,66.6,55.2,46.7,54.3,49.7,44.5,93,83,60,30.34,30.22,6,0,6,0.00
2013-10-15,70.5,56.1,45.3,57.5,48.8,43.1,93,78,51,30.25,30.09,9,0,9,0.00
2013-10-16,67.4,59.1,50.5,60.5,55.3,46.9,93,87,77,30.09,29.91,3,0,5,0.00
2013-10-17,70.7,64.6,59.4,63.9,61.1,57.1,93,89,76,29.91,29.69,11,0,11,0.06
2013-10-18,65.4,56.9,46.2,62.7,47.7,42.0,91,72,55,29.99,29.70,15,1,16,0.01
2013-10-19,63.9,51.3,41.4,51.3,45.1,38.7,92,80,58,29.99,29.78,113,35,113,0.00
2013-10-20,61.1,50.8,42.3,51.8,42.3,38.1,92,74,48,30.07,29.78,11,1,16,0.00
2013-10-21,65.3,51.1,38.0,47.3,41.2,35.3,92,72,45,30.15,29.96,10,0,10,0.00
2013-10-22,64.6,52.8,45.1,53.4,46.4,35.2,93,79,63,29.96,29.77,12,0,12,0.00
2013-10-23,56.1,47.2,40.8,44.3,38.3,34.8,83,71,60,29.82,29.61,11,0,11,0.00
2013-10-24,51.1,42.7,36.5,37.4,33.6,29.6,87,71,50,30.04,29.79,17,1,17,0.00
2013-10-25,53.5,42.4,34.4,39.5,33.5,29.5,84,72,50,30.24,30.04,15,1,15,0.00
2013-10-26,54.8,43.0,30.6,37.4,32.9,27.1,90,69,45,30.24,29.90,18,1,18,0.00
2013-10-27,57.1,47.6,37.8,39.5,35.3,31.8,79,63,48,30.13,29.88,11,1,12,0.00
2013-10-28,60.6,45.2,32.6,41.8,35.9,29.1,95,72,48,30.29,30.13,10,0,10,0.00
2013-10-29,57.8,45.2,38.6,43.3,37.6,32.7,87,75,53,30.39,30.30,11,0,11,0.00
2013-10-30,59.0,49.5,40.3,53.6,45.9,37.0,91,87,79,30.34,30.17,113,24,113,0.00
2013-10-31,67.6,56.6,48.4,61.5,53.7,45.9,94,90,79,30.21,29.93,113,28,113,0.01
2013-11-1,68.8,63.1,53.4,64.0,58.6,51.0,92,86,70,29.77,29.55,26,1,26,0.22
2013-11-2,67.1,54.5,48.0,54.3,48.7,41.3,93,82,53,29.79,29.62,112,13,113,0.00
2013-11-3,51.4,44.8,33.8,42.7,34.0,22.3,84,67,45,30.45,29.79,16,2,16,0.00
2013-11-4,45.4,36.9,29.7,27.4,23.3,18.9,77,59,35,30.65,30.45,13,1,14,0.00
2013-11-5,57.3,45.2,32.4,44.2,37.1,26.3,86,73,59,30.63,30.47,7,0,7,0.00
2013-11-6,63.9,54.1,44.1,53.6,47.5,40.2,90,79,61,30.48,30.05,14,1,14,0.00
2013-11-7,60.7,55.0,43.1,57.0,51.7,39.5,91,89,83,30.04,29.78,21,0,22,0.04
2013-11-8,50.1,41.2,34.4,38.6,31.3,27.5,82,68,50,30.25,29.97,16,1,23,0.00
2013-11-9,49.8,40.3,29.4,35.3,30.8,25.5,88,70,46,30.31,29.98,12,0,12,0.00
2013-11-10,60.5,46.5,33.7,41.4,33.9,30.2,88,63,46,30.10,29.87,23,2,23,0.00
2013-11-11,54.9,47.1,35.3,38.0,33.6,28.1,78,60,48,30.23,29.96,15,1,17,0.00
2013-11-12,49.7,37.3,26.0,39.1,25.7,17.9,81,63,47,30.32,29.93,20,2,20,0.00
2013-11-13,39.9,31.1,24.4,22.7,18.2,14.5,77,59,42,30.40,30.30,18,2,18,0.00
2013-11-14,52.8,39.0,27.5,26.7,22.0,18.3,77,53,26,30.30,30.18,14,1,14,0.00
2013-11-15,57.6,41.7,29.9,36.0,30.3,24.0,87,66,36,30.24,30.15,7,0,7,0.00
2013-11-16,58.0,48.9,40.2,49.8,43.9,34.5,92,83,68,30.33,30.23,2,0,7,0.03
2013-11-17,66.0,57.4,49.7,58.4,53.1,46.8,92,86,75,30.24,29.75,14,1,14,0.00
2013-11-18,64.8,57.9,47.9,60.7,43.0,28.0,93,60,37,29.83,29.62,19,2,19,0.01
2013-11-19,47.9,42.1,29.7,30.8,27.1,22.3,74,56,47,30.35,29.83,22,3,22,0.00
2013-11-20,45.1,34.6,27.4,24.5,19.7,12.5,79,56,30,30.59,30.35,10,1,10,0.00
2013-11-21,52.1,41.0,26.2,41.6,31.2,16.7,78,68,56,30.59,30.38,5,0,7,0.00
2013-11-22,58.2,51.6,47.4,50.6,47.2,41.5,92,85,75,30.38,29.93,10,0,10,0.01
2013-11-23,51.0,40.9,29.7,48.4,29.4,17.5,92,64,47,30.07,29.91,21,3,24,0.00
2013-11-24,29.9,25.4,21.5,16.6,9.2,6.8,61,50,40,30.38,30.02,25,4,25,0.00
2013-11-25,35.4,27.3,19.3,22.0,16.6,10.7,78,64,51,30.47,30.28,9,1,12,0.00
2013-11-26,50.4,36.1,32.1,50.0,30.9,22.0,99,82,63,30.28,29.66,11,1,11,0.64
2013-11-27,61.2,45.1,31.5,61.2,43.8,23.9,100,96,74,29.85,29.41,21,3,21,1.42
2013-11-28,36.4,30.6,27.4,23.9,20.9,19.2,77,68,52,30.48,29.85,21,2,21,0.00
2013-11-29,39.3,30.5,23.2,25.7,22.0,18.9,88,71,53,30.74,30.47,13,1,13,0.01
2013-11-30,38.7,30.3,19.9,32.7,23.2,15.3,89,75,68,30.74,30.39,10,1,10,0.00
2013-12-1,47.4,38.0,27.4,34.8,30.8,24.3,91,76,58,30.38,30.03,4,0,7,0.00
2013-12-2,49.5,41.3,37.5,38.0,34.1,31.5,89,76,62,30.03,29.88,3,0,4,0.00
2013-12-3,52.3,42.6,35.4,41.9,36.3,31.9,89,79,58,30.01,29.89,7,0,7,0.00
2013-12-4,52.2,44.4,33.9,45.7,39.3,30.7,92,83,72,30.12,30.01,6,0,6,0.00
2013-12-5,56.5,51.3,47.7,55.3,49.8,44.7,96,94,88,30.10,29.97,113,19,113,0.01
2013-12-6,60.9,47.6,36.6,60.0,46.2,35.0,97,95,91,30.16,29.86,107,5,113,0.80
2013-12-7,39.0,34.6,28.7,35.2,30.7,24.1,95,86,69,30.52,30.10,15,2,15,0.08
2013-12-8,31.3,27.8,25.2,28.5,23.4,19.3,94,84,70,30.60,30.33,9,1,9,0.00
2013-12-9,35.9,33.7,29.9,34.5,32.4,28.4,95,95,94,30.33,30.00,8,0,8,0.41
2013-12-10,33.2,29.9,20.7,32.2,28.5,18.7,96,95,93,30.18,29.93,12,0,12,0.38
2013-12-11,31.2,23.0,15.0,24.4,19.0,12.9,93,85,68,30.38,30.18,12,0,12,0.00
2013-12-12,26.6,21.2,15.5,20.1,14.6,9.5,90,76,56,30.40,30.19,20,1,20,0.00
2013-12-13,34.8,27.0,15.4,22.5,17.4,9.6,83,67,56,30.34,30.17,16,1,16,0.00
2013-12-14,31.3,28.2,26.1,29.7,24.8,22.1,94,87,76,30.43,29.69,113,16,113,0.00
2013-12-15,37.2,32.8,28.4,35.3,29.5,23.4,95,88,71,29.88,29.57,113,23,113,0.01
2013-12-16,31.2,25.2,18.0,25.5,15.9,12.4,83,68,53,30.24,29.87,17,2,17,0.00
2013-12-17,30.4,25.3,20.8,27.5,21.8,16.9,97,86,69,30.22,29.94,7,0,7,0.00
2013-12-18,36.9,26.9,18.6,26.1,21.3,15.9,91,80,63,30.21,29.96,16,1,16,0.00
2013-12-19,46.0,30.1,20.4,34.2,24.8,17.4,92,81,60,30.21,30.05,9,0,9,0.19
2013-12-20,50.9,40.6,32.4,42.0,34.1,29.6,91,78,58,30.10,29.98,10,0,10,0.23
2013-12-21,62.8,51.3,40.3,57.2,47.9,38.7,95,88,75,30.01,29.90,21,1,21,0.00
2013-12-22,66.6,62.8,59.0,63.3,60.0,56.4,94,90,85,29.96,29.80,112,3,112,0.06
2013-12-23,60.2,53.8,40.9,59.1,51.6,33.4,96,92,74,30.17,29.91,17,1,17,0.41
2013-12-24,40.7,34.4,25.6,33.5,25.3,15.5,78,69,59,30.40,30.14,21,2,21,0.00
2013-12-25,28.6,24.9,18.8,18.7,13.6,9.9,70,62,54,30.55,30.40,14,1,14,0.00
2013-12-26,38.4,28.3,20.6,31.1,23.2,16.4,88,81,70,30.42,30.18,15,0,15,0.00
2013-12-27,44.5,30.9,22.3,27.0,23.0,19.3,96,74,47,30.39,30.29,10,1,12,0.00
2013-12-28,55.7,36.8,25.0,35.6,27.3,21.4,88,71,42,30.31,30.08,15,1,18,0.00
2013-12-29,44.2,41.1,37.6,42.9,37.0,30.4,97,86,66,30.08,29.44,112,0,112,0.98
2013-12-30,43.5,36.2,25.4,40.9,30.7,16.7,95,81,64,30.18,29.74,23,1,23,0.01
2013-12-31,34.9,27.7,20.8,29.5,18.9,14.4,82,69,58,30.32,30.07,15,1,15,0.00
2014-1-1,37.8,29.3,19.7,25.7,20.9,13.7,81,71,60,30.42,30.21,10,0,10,0.00
2014-1-2,32.0,28.8,19.7,26.5,24.2,17.5,91,83,73,30.20,29.65,14,2,14,0.00